Tuesday, January 16, 2018, 5:22 PM GMT
Back to Local

CWSS, St. Stephen, N. B.

Location: , , Canada Lat: 45.217
Local Time: 5:22 PM GMT (17:22 GMT) Lon: -67.25
Time Zone: GMT Elev: 85 ft

Show me the last for .
Show Decoded

2018-01-16 17:00 METAR CWSS 161700Z AUTO 28004KT M08/M11 RMK AO1 SOG 04 8013 SLP312 T10791112 =
2018-01-16 16:00 METAR CWSS 161600Z AUTO 32003KT M08/M11 RMK AO1 SOG 04 8008 SLP316 T10791111 =
2018-01-16 15:00 METAR CWSS 161500Z AUTO 29004KT M08/M11 RMK AO1 SOG 04 6001 SLP325 T10821110 =
2018-01-16 14:00 METAR CWSS 161400Z AUTO 01003KT M09/M12 RMK AO1 SOG 04 1001 SLP325 T10901116 =
2018-01-16 13:00 METAR CWSS 161300Z AUTO 01005KT M09/M12 RMK AO1 SOG 04 0005 SLP324 T10851117 =
2018-01-16 12:00 METAR CWSS 161200Z AUTO 34002KT M10/M12 RMK AO1 SOG 04 3003 SLP326 T10961117 =
2018-01-16 11:00 METAR CWSS 161100Z AUTO 34003KT M10/M12 RMK AO1 SOG 04 5001 SLP324 T10971117 =
2018-01-16 10:00 METAR CWSS 161000Z AUTO 33004KT M10/M12 RMK AO1 SOG 04 6017 SLP319 T10971117 =
2018-01-16 09:00 METAR CWSS 160900Z AUTO 34004KT M10/M12 RMK AO1 SOG 04 8014 SLP323 T10981119 =
2018-01-16 08:00 METAR CWSS 160800Z AUTO 35003KT M10/M12 RMK AO1 SOG 04 8019 SLP325 T10991122 =
2018-01-16 07:00 METAR CWSS 160700Z AUTO 34007KT M10/M12 RMK AO1 SOG 04 8008 SLP336 T10951119 =
2018-01-16 06:00 METAR CWSS 160600Z AUTO 01006KT M09/M12 RMK AO1 SOG 04 8013 SLP337 T10941118 =
2018-01-16 05:00 METAR CWSS 160500Z AUTO 01006KT M09/M12 RMK AO1 SOG 04 6015 SLP344 T10921117 =
2018-01-16 04:00 METAR CWSS 160400Z AUTO 02008KT M09/M12 RMK AO1 SOG 04 6028 SLP344 T10891116 =
2018-01-16 03:00 METAR CWSS 160300Z AUTO 02008KT M09/M12 RMK AO1 SOG 04 8030 SLP350 T10881117 =
2018-01-16 02:00 METAR CWSS 160200Z AUTO 04008G17KT M09/M12 RMK AO1 SOG 04 8027 PK WND 04017/0159
                 SLP359 T10851117 =
2018-01-16 01:00 METAR CWSS 160100Z AUTO 05005KT M09/M11 RMK AO1 SOG 04 8020 SLP373 T10851112 =
2018-01-16 00:00 METAR CWSS 160000Z AUTO 03006KT M08/M11 RMK AO1 SOG 04 8014 SLP381 T10751113 =
2018-01-15 23:00 METAR CWSS 152300Z AUTO 02005KT M09/M11 RMK AO1 SOG 04 8008 SLP387 T10871111 =
2018-01-15 22:00 METAR CWSS 152200Z AUTO 01004KT M09/M12 RMK AO1 SOG 04 6006 SLP393 T10891115 =
2018-01-15 21:00 METAR CWSS 152100Z AUTO 04007KT M09/M13 RMK AO1 SOG 04 6008 SLP395 T10891126 =
2018-01-15 20:00 METAR CWSS 152000Z AUTO 03011G19KT M09/M13 RMK AO1 SOG 04 6021 PK WND 03019/1956
                 SLP395 T10861129 =
2018-01-15 19:00 METAR CWSS 151900Z AUTO 04009G16KT M08/M12 RMK AO1 SOG 04 6032 SLP399 T10761121
                 =
2018-01-15 18:00 METAR CWSS 151800Z AUTO 03010G16KT M08/M13 RMK AO1 SOG 04 7041 PK WND 00018/1709
                 SLP403 T10781129 =

Support USWX by starting your Amazon purchase here.